sensor_id;sensor_type;location;lat;lon;timestamp;P1;durP1;ratioP1;P2;durP2;ratioP2
19221;SDS011;9745;50.828;4.378;2023-11-21T00:02:20;35.57;;;18.60;;
19221;SDS011;9745;50.828;4.378;2023-11-21T00:04:47;40.77;;;19.80;;
19221;SDS011;9745;50.828;4.378;2023-11-21T00:07:13;40.90;;;18.87;;
19221;SDS011;9745;50.828;4.378;2023-11-21T00:09:40;40.07;;;19.40;;
19221;SDS011;9745;50.828;4.378;2023-11-21T00:12:06;42.83;;;18.40;;
19221;SDS011;9745;50.828;4.378;2023-11-21T00:14:35;40.17;;;18.50;;
19221;SDS011;9745;50.828;4.378;2023-11-21T00:17:01;40.23;;;19.37;;
19221;SDS011;9745;50.828;4.378;2023-11-21T00:19:27;45.90;;;20.67;;
19221;SDS011;9745;50.828;4.378;2023-11-21T00:21:53;41.80;;;19.50;;
19221;SDS011;9745;50.828;4.378;2023-11-21T00:24:19;43.67;;;20.77;;
19221;SDS011;9745;50.828;4.378;2023-11-21T00:26:45;48.70;;;21.70;;
19221;SDS011;9745;50.828;4.378;2023-11-21T00:29:13;44.60;;;20.53;;
19221;SDS011;9745;50.828;4.378;2023-11-21T00:31:44;51.13;;;21.27;;
19221;SDS011;9745;50.828;4.378;2023-11-21T00:34:11;44.33;;;20.97;;
19221;SDS011;9745;50.828;4.378;2023-11-21T00:36:39;45.73;;;21.03;;
19221;SDS011;9745;50.828;4.378;2023-11-21T00:39:05;47.63;;;21.73;;
19221;SDS011;9745;50.828;4.378;2023-11-21T00:41:32;49.87;;;21.47;;
19221;SDS011;9745;50.828;4.378;2023-11-21T00:43:58;49.10;;;20.83;;
19221;SDS011;9745;50.828;4.378;2023-11-21T00:46:27;48.67;;;20.53;;
19221;SDS011;9745;50.828;4.378;2023-11-21T00:48:54;56.37;;;21.50;;
19221;SDS011;9745;50.828;4.378;2023-11-21T00:51:20;45.63;;;20.33;;
19221;SDS011;9745;50.828;4.378;2023-11-21T00:53:47;46.63;;;20.43;;
19221;SDS011;9745;50.828;4.378;2023-11-21T00:56:13;42.50;;;19.67;;
19221;SDS011;9745;50.828;4.378;2023-11-21T00:58:40;37.87;;;18.00;;
19221;SDS011;9745;50.828;4.378;2023-11-21T01:01:11;43.53;;;20.97;;
19221;SDS011;9745;50.828;4.378;2023-11-21T01:03:37;42.97;;;20.63;;
19221;SDS011;9745;50.828;4.378;2023-11-21T01:06:03;42.00;;;19.77;;
19221;SDS011;9745;50.828;4.378;2023-11-21T01:08:32;46.07;;;20.93;;
19221;SDS011;9745;50.828;4.378;2023-11-21T01:10:58;46.60;;;20.73;;
19221;SDS011;9745;50.828;4.378;2023-11-21T01:13:25;39.33;;;19.33;;
19221;SDS011;9745;50.828;4.378;2023-11-21T01:15:54;45.43;;;20.90;;
19221;SDS011;9745;50.828;4.378;2023-11-21T01:18:20;39.30;;;19.10;;
19221;SDS011;9745;50.828;4.378;2023-11-21T01:20:47;42.50;;;21.37;;
19221;SDS011;9745;50.828;4.378;2023-11-21T01:23:13;49.30;;;20.53;;
19221;SDS011;9745;50.828;4.378;2023-11-21T01:25:39;40.53;;;21.17;;
19221;SDS011;9745;50.828;4.378;2023-11-21T01:28:05;45.30;;;19.37;;
19221;SDS011;9745;50.828;4.378;2023-11-21T01:30:32;44.50;;;20.23;;
19221;SDS011;9745;50.828;4.378;2023-11-21T01:32:58;54.67;;;22.10;;
19221;SDS011;9745;50.828;4.378;2023-11-21T01:35:24;40.50;;;20.10;;
19221;SDS011;9745;50.828;4.378;2023-11-21T01:37:50;38.10;;;19.53;;
19221;SDS011;9745;50.828;4.378;2023-11-21T01:40:16;47.43;;;19.53;;
19221;SDS011;9745;50.828;4.378;2023-11-21T01:42:43;41.97;;;19.30;;
19221;SDS011;9745;50.828;4.378;2023-11-21T01:45:10;39.63;;;18.90;;
19221;SDS011;9745;50.828;4.378;2023-11-21T01:47:37;43.93;;;18.53;;
19221;SDS011;9745;50.828;4.378;2023-11-21T01:50:05;33.20;;;18.50;;
19221;SDS011;9745;50.828;4.378;2023-11-21T01:52:33;39.90;;;19.67;;
19221;SDS011;9745;50.828;4.378;2023-11-21T01:54:59;39.67;;;18.30;;
19221;SDS011;9745;50.828;4.378;2023-11-21T01:57:26;37.83;;;19.20;;
19221;SDS011;9745;50.828;4.378;2023-11-21T01:59:53;36.17;;;18.13;;
19221;SDS011;9745;50.828;4.378;2023-11-21T02:02:20;34.43;;;18.33;;
19221;SDS011;9745;50.828;4.378;2023-11-21T02:04:48;32.53;;;18.67;;
19221;SDS011;9745;50.828;4.378;2023-11-21T02:07:14;31.87;;;18.03;;
19221;SDS011;9745;50.828;4.378;2023-11-21T02:09:44;35.10;;;17.27;;
19221;SDS011;9745;50.828;4.378;2023-11-21T02:12:10;36.10;;;17.83;;
19221;SDS011;9745;50.828;4.378;2023-11-21T02:14:36;31.23;;;17.60;;
19221;SDS011;9745;50.828;4.378;2023-11-21T02:17:02;32.83;;;18.30;;
19221;SDS011;9745;50.828;4.378;2023-11-21T02:19:29;33.37;;;17.20;;
19221;SDS011;9745;50.828;4.378;2023-11-21T02:21:59;32.23;;;15.87;;
19221;SDS011;9745;50.828;4.378;2023-11-21T02:24:31;30.10;;;14.27;;
19221;SDS011;9745;50.828;4.378;2023-11-21T02:26:58;31.23;;;16.40;;
19221;SDS011;9745;50.828;4.378;2023-11-21T02:29:25;26.17;;;14.90;;
19221;SDS011;9745;50.828;4.378;2023-11-21T02:31:54;32.13;;;16.30;;
19221;SDS011;9745;50.828;4.378;2023-11-21T02:34:21;39.70;;;16.00;;
19221;SDS011;9745;50.828;4.378;2023-11-21T02:36:47;29.27;;;14.60;;
19221;SDS011;9745;50.828;4.378;2023-11-21T02:39:17;30.27;;;14.80;;
19221;SDS011;9745;50.828;4.378;2023-11-21T02:41:47;30.83;;;14.27;;
19221;SDS011;9745;50.828;4.378;2023-11-21T02:44:12;31.67;;;14.57;;
19221;SDS011;9745;50.828;4.378;2023-11-21T02:46:42;30.87;;;14.60;;
19221;SDS011;9745;50.828;4.378;2023-11-21T02:49:08;31.47;;;14.80;;
19221;SDS011;9745;50.828;4.378;2023-11-21T02:51:36;27.37;;;14.80;;
19221;SDS011;9745;50.828;4.378;2023-11-21T02:54:04;28.90;;;15.83;;
19221;SDS011;9745;50.828;4.378;2023-11-21T02:56:31;28.77;;;14.03;;
19221;SDS011;9745;50.828;4.378;2023-11-21T02:59:00;28.27;;;14.50;;
19221;SDS011;9745;50.828;4.378;2023-11-21T03:01:26;30.77;;;15.47;;
19221;SDS011;9745;50.828;4.378;2023-11-21T03:03:53;32.47;;;15.87;;
19221;SDS011;9745;50.828;4.378;2023-11-21T03:06:20;33.20;;;14.63;;
19221;SDS011;9745;50.828;4.378;2023-11-21T03:08:46;32.93;;;15.27;;
19221;SDS011;9745;50.828;4.378;2023-11-21T03:11:13;35.57;;;15.53;;
19221;SDS011;9745;50.828;4.378;2023-11-21T03:13:39;29.07;;;14.17;;
19221;SDS011;9745;50.828;4.378;2023-11-21T03:16:08;27.83;;;15.07;;
19221;SDS011;9745;50.828;4.378;2023-11-21T03:18:38;27.70;;;13.67;;
19221;SDS011;9745;50.828;4.378;2023-11-21T03:21:07;30.33;;;14.90;;
19221;SDS011;9745;50.828;4.378;2023-11-21T03:23:34;26.93;;;13.67;;
19221;SDS011;9745;50.828;4.378;2023-11-21T03:26:00;31.50;;;13.33;;
19221;SDS011;9745;50.828;4.378;2023-11-21T03:28:26;25.90;;;12.53;;
19221;SDS011;9745;50.828;4.378;2023-11-21T03:30:55;27.83;;;12.10;;
19221;SDS011;9745;50.828;4.378;2023-11-21T03:33:21;28.13;;;13.07;;
19221;SDS011;9745;50.828;4.378;2023-11-21T03:35:47;29.43;;;13.37;;
19221;SDS011;9745;50.828;4.378;2023-11-21T03:38:18;25.00;;;13.57;;
19221;SDS011;9745;50.828;4.378;2023-11-21T03:40:44;27.63;;;13.33;;
19221;SDS011;9745;50.828;4.378;2023-11-21T03:43:10;28.60;;;14.10;;
19221;SDS011;9745;50.828;4.378;2023-11-21T03:45:36;26.57;;;14.30;;
19221;SDS011;9745;50.828;4.378;2023-11-21T03:48:02;33.17;;;14.40;;
19221;SDS011;9745;50.828;4.378;2023-11-21T03:50:28;30.67;;;13.77;;
19221;SDS011;9745;50.828;4.378;2023-11-21T03:52:55;29.50;;;14.40;;
19221;SDS011;9745;50.828;4.378;2023-11-21T03:55:21;26.17;;;14.07;;
19221;SDS011;9745;50.828;4.378;2023-11-21T03:57:48;25.90;;;14.17;;
19221;SDS011;9745;50.828;4.378;2023-11-21T04:00:14;26.83;;;15.27;;
19221;SDS011;9745;50.828;4.378;2023-11-21T04:02:41;33.90;;;16.47;;
19221;SDS011;9745;50.828;4.378;2023-11-21T04:05:07;33.00;;;16.57;;
19221;SDS011;9745;50.828;4.378;2023-11-21T04:07:34;36.73;;;17.23;;
19221;SDS011;9745;50.828;4.378;2023-11-21T04:10:00;30.43;;;16.83;;
19221;SDS011;9745;50.828;4.378;2023-11-21T04:12:26;37.00;;;18.23;;
19221;SDS011;9745;50.828;4.378;2023-11-21T04:14:52;33.13;;;17.37;;
19221;SDS011;9745;50.828;4.378;2023-11-21T04:17:18;30.50;;;17.47;;
19221;SDS011;9745;50.828;4.378;2023-11-21T04:19:45;35.97;;;18.00;;
19221;SDS011;9745;50.828;4.378;2023-11-21T04:22:11;34.70;;;19.13;;
19221;SDS011;9745;50.828;4.378;2023-11-21T04:24:37;36.57;;;19.27;;
19221;SDS011;9745;50.828;4.378;2023-11-21T04:27:03;36.33;;;18.20;;
19221;SDS011;9745;50.828;4.378;2023-11-21T04:29:29;40.13;;;20.40;;
19221;SDS011;9745;50.828;4.378;2023-11-21T04:31:56;37.93;;;20.27;;
19221;SDS011;9745;50.828;4.378;2023-11-21T04:34:22;50.03;;;21.40;;
19221;SDS011;9745;50.828;4.378;2023-11-21T04:36:48;31.67;;;19.60;;
19221;SDS011;9745;50.828;4.378;2023-11-21T04:39:17;35.53;;;20.27;;
19221;SDS011;9745;50.828;4.378;2023-11-21T04:41:43;39.70;;;20.50;;
19221;SDS011;9745;50.828;4.378;2023-11-21T04:44:09;38.60;;;19.40;;
19221;SDS011;9745;50.828;4.378;2023-11-21T04:46:35;41.60;;;20.23;;
19221;SDS011;9745;50.828;4.378;2023-11-21T04:49:01;35.27;;;19.03;;
19221;SDS011;9745;50.828;4.378;2023-11-21T04:51:27;37.67;;;19.83;;
19221;SDS011;9745;50.828;4.378;2023-11-21T04:53:53;32.77;;;18.93;;
19221;SDS011;9745;50.828;4.378;2023-11-21T04:56:19;32.73;;;18.40;;
19221;SDS011;9745;50.828;4.378;2023-11-21T04:58:45;37.00;;;19.53;;
19221;SDS011;9745;50.828;4.378;2023-11-21T05:01:13;37.07;;;18.50;;
19221;SDS011;9745;50.828;4.378;2023-11-21T05:03:39;35.97;;;18.70;;
19221;SDS011;9745;50.828;4.378;2023-11-21T05:06:05;34.73;;;19.33;;
19221;SDS011;9745;50.828;4.378;2023-11-21T05:08:32;28.30;;;17.93;;
19221;SDS011;9745;50.828;4.378;2023-11-21T05:10:58;31.90;;;19.30;;
19221;SDS011;9745;50.828;4.378;2023-11-21T05:13:24;38.17;;;18.27;;
19221;SDS011;9745;50.828;4.378;2023-11-21T05:15:53;31.67;;;18.07;;
19221;SDS011;9745;50.828;4.378;2023-11-21T05:18:19;33.30;;;18.67;;
19221;SDS011;9745;50.828;4.378;2023-11-21T05:20:48;35.27;;;18.00;;
19221;SDS011;9745;50.828;4.378;2023-11-21T05:23:15;33.73;;;19.43;;
19221;SDS011;9745;50.828;4.378;2023-11-21T05:25:41;34.63;;;18.77;;
19221;SDS011;9745;50.828;4.378;2023-11-21T05:28:07;35.50;;;16.67;;
19221;SDS011;9745;50.828;4.378;2023-11-21T05:30:33;31.93;;;17.43;;
19221;SDS011;9745;50.828;4.378;2023-11-21T05:32:59;34.73;;;18.93;;
19221;SDS011;9745;50.828;4.378;2023-11-21T05:35:28;31.57;;;19.47;;
19221;SDS011;9745;50.828;4.378;2023-11-21T05:37:57;34.50;;;17.03;;
19221;SDS011;9745;50.828;4.378;2023-11-21T05:40:23;33.40;;;18.13;;
19221;SDS011;9745;50.828;4.378;2023-11-21T05:42:51;35.33;;;18.27;;
19221;SDS011;9745;50.828;4.378;2023-11-21T05:45:17;28.40;;;16.90;;
19221;SDS011;9745;50.828;4.378;2023-11-21T05:47:44;30.60;;;17.63;;
19221;SDS011;9745;50.828;4.378;2023-11-21T05:50:11;30.70;;;17.40;;
19221;SDS011;9745;50.828;4.378;2023-11-21T05:52:39;34.50;;;17.80;;
19221;SDS011;9745;50.828;4.378;2023-11-21T05:55:27;30.40;;;17.87;;
19221;SDS011;9745;50.828;4.378;2023-11-21T05:57:52;35.77;;;18.63;;
19221;SDS011;9745;50.828;4.378;2023-11-21T06:00:18;31.80;;;16.57;;
19221;SDS011;9745;50.828;4.378;2023-11-21T06:02:48;33.90;;;18.13;;
19221;SDS011;9745;50.828;4.378;2023-11-21T06:05:16;32.77;;;17.50;;
19221;SDS011;9745;50.828;4.378;2023-11-21T06:07:43;30.43;;;17.03;;
19221;SDS011;9745;50.828;4.378;2023-11-21T06:10:10;30.53;;;17.30;;
19221;SDS011;9745;50.828;4.378;2023-11-21T06:12:39;32.77;;;18.30;;
19221;SDS011;9745;50.828;4.378;2023-11-21T06:15:07;32.10;;;16.67;;
19221;SDS011;9745;50.828;4.378;2023-11-21T06:17:40;35.87;;;18.80;;
19221;SDS011;9745;50.828;4.378;2023-11-21T06:20:07;31.83;;;18.13;;
19221;SDS011;9745;50.828;4.378;2023-11-21T06:22:39;40.20;;;18.67;;
19221;SDS011;9745;50.828;4.378;2023-11-21T06:25:06;32.07;;;17.63;;
19221;SDS011;9745;50.828;4.378;2023-11-21T06:27:33;34.40;;;18.53;;
19221;SDS011;9745;50.828;4.378;2023-11-21T06:30:02;34.90;;;18.83;;
19221;SDS011;9745;50.828;4.378;2023-11-21T06:32:28;37.50;;;19.77;;
19221;SDS011;9745;50.828;4.378;2023-11-21T06:34:55;39.93;;;19.17;;
19221;SDS011;9745;50.828;4.378;2023-11-21T06:37:23;31.70;;;17.90;;
19221;SDS011;9745;50.828;4.378;2023-11-21T06:39:49;34.27;;;18.83;;
19221;SDS011;9745;50.828;4.378;2023-11-21T06:42:17;34.07;;;19.00;;
19221;SDS011;9745;50.828;4.378;2023-11-21T06:44:44;38.87;;;18.00;;
19221;SDS011;9745;50.828;4.378;2023-11-21T06:47:10;32.07;;;18.20;;
19221;SDS011;9745;50.828;4.378;2023-11-21T06:49:37;43.93;;;19.67;;
19221;SDS011;9745;50.828;4.378;2023-11-21T06:52:08;35.33;;;18.77;;
19221;SDS011;9745;50.828;4.378;2023-11-21T06:54:34;30.03;;;17.63;;
19221;SDS011;9745;50.828;4.378;2023-11-21T06:57:00;32.63;;;18.87;;
19221;SDS011;9745;50.828;4.378;2023-11-21T06:59:30;37.43;;;18.80;;
19221;SDS011;9745;50.828;4.378;2023-11-21T07:01:57;32.47;;;17.17;;
19221;SDS011;9745;50.828;4.378;2023-11-21T07:04:23;31.43;;;17.33;;
19221;SDS011;9745;50.828;4.378;2023-11-21T07:06:54;31.67;;;15.77;;
19221;SDS011;9745;50.828;4.378;2023-11-21T07:09:20;31.07;;;16.17;;
19221;SDS011;9745;50.828;4.378;2023-11-21T07:11:50;32.33;;;18.60;;
19221;SDS011;9745;50.828;4.378;2023-11-21T07:14:16;32.20;;;17.67;;
19221;SDS011;9745;50.828;4.378;2023-11-21T07:16:44;26.87;;;16.77;;
19221;SDS011;9745;50.828;4.378;2023-11-21T07:19:10;32.10;;;16.40;;
19221;SDS011;9745;50.828;4.378;2023-11-21T07:21:37;33.87;;;17.27;;
19221;SDS011;9745;50.828;4.378;2023-11-21T07:24:07;31.87;;;18.27;;
19221;SDS011;9745;50.828;4.378;2023-11-21T07:26:33;38.27;;;17.53;;
19221;SDS011;9745;50.828;4.378;2023-11-21T07:29:00;33.13;;;19.33;;
19221;SDS011;9745;50.828;4.378;2023-11-21T07:31:30;37.63;;;18.77;;
19221;SDS011;9745;50.828;4.378;2023-11-21T07:33:59;37.00;;;18.93;;
19221;SDS011;9745;50.828;4.378;2023-11-21T07:36:25;38.80;;;20.30;;
19221;SDS011;9745;50.828;4.378;2023-11-21T07:38:54;37.70;;;19.63;;
19221;SDS011;9745;50.828;4.378;2023-11-21T07:41:20;34.60;;;19.50;;
19221;SDS011;9745;50.828;4.378;2023-11-21T07:43:47;42.10;;;20.07;;
19221;SDS011;9745;50.828;4.378;2023-11-21T07:46:13;38.57;;;20.93;;
19221;SDS011;9745;50.828;4.378;2023-11-21T07:48:40;49.20;;;21.53;;
19221;SDS011;9745;50.828;4.378;2023-11-21T07:51:09;38.80;;;20.50;;
19221;SDS011;9745;50.828;4.378;2023-11-21T07:53:38;43.40;;;20.63;;
19221;SDS011;9745;50.828;4.378;2023-11-21T07:58:30;39.17;;;20.37;;
19221;SDS011;9745;50.828;4.378;2023-11-21T08:00:58;46.97;;;19.43;;
19221;SDS011;9745;50.828;4.378;2023-11-21T08:03:24;45.47;;;20.87;;
19221;SDS011;9745;50.828;4.378;2023-11-21T08:05:51;38.60;;;20.50;;
19221;SDS011;9745;50.828;4.378;2023-11-21T08:08:17;42.40;;;22.07;;
19221;SDS011;9745;50.828;4.378;2023-11-21T08:10:46;45.67;;;20.57;;
19221;SDS011;9745;50.828;4.378;2023-11-21T08:13:30;41.90;;;21.13;;
19221;SDS011;9745;50.828;4.378;2023-11-21T08:15:56;44.80;;;21.03;;
19221;SDS011;9745;50.828;4.378;2023-11-21T08:18:30;41.63;;;21.47;;
19221;SDS011;9745;50.828;4.378;2023-11-21T08:20:56;44.63;;;20.87;;
19221;SDS011;9745;50.828;4.378;2023-11-21T08:23:22;44.67;;;22.53;;
19221;SDS011;9745;50.828;4.378;2023-11-21T08:25:51;42.47;;;21.40;;
19221;SDS011;9745;50.828;4.378;2023-11-21T08:28:21;47.30;;;21.53;;
19221;SDS011;9745;50.828;4.378;2023-11-21T08:30:51;44.20;;;21.67;;
19221;SDS011;9745;50.828;4.378;2023-11-21T08:33:20;47.47;;;21.40;;
19221;SDS011;9745;50.828;4.378;2023-11-21T08:35:48;46.33;;;21.63;;
19221;SDS011;9745;50.828;4.378;2023-11-21T08:38:15;47.50;;;23.20;;
19221;SDS011;9745;50.828;4.378;2023-11-21T08:40:41;46.03;;;21.87;;
19221;SDS011;9745;50.828;4.378;2023-11-21T08:43:07;50.27;;;23.03;;
19221;SDS011;9745;50.828;4.378;2023-11-21T08:45:35;47.83;;;23.23;;
19221;SDS011;9745;50.828;4.378;2023-11-21T08:48:02;48.80;;;22.50;;
19221;SDS011;9745;50.828;4.378;2023-11-21T08:50:36;47.37;;;21.73;;
19221;SDS011;9745;50.828;4.378;2023-11-21T08:53:04;42.07;;;20.53;;
19221;SDS011;9745;50.828;4.378;2023-11-21T08:55:30;53.23;;;22.17;;
19221;SDS011;9745;50.828;4.378;2023-11-21T08:58:02;49.80;;;21.53;;
19221;SDS011;9745;50.828;4.378;2023-11-21T09:00:30;43.57;;;21.40;;
19221;SDS011;9745;50.828;4.378;2023-11-21T09:02:56;48.90;;;22.57;;
19221;SDS011;9745;50.828;4.378;2023-11-21T09:05:25;49.73;;;22.97;;
19221;SDS011;9745;50.828;4.378;2023-11-21T09:07:51;45.33;;;21.50;;
19221;SDS011;9745;50.828;4.378;2023-11-21T09:10:17;43.53;;;21.50;;
19221;SDS011;9745;50.828;4.378;2023-11-21T09:12:53;45.63;;;22.10;;
19221;SDS011;9745;50.828;4.378;2023-11-21T09:15:25;51.97;;;22.67;;
19221;SDS011;9745;50.828;4.378;2023-11-21T09:17:51;45.33;;;22.00;;
19221;SDS011;9745;50.828;4.378;2023-11-21T09:20:17;51.37;;;21.73;;
19221;SDS011;9745;50.828;4.378;2023-11-21T09:22:43;48.33;;;22.63;;
19221;SDS011;9745;50.828;4.378;2023-11-21T09:25:09;51.20;;;22.77;;
19221;SDS011;9745;50.828;4.378;2023-11-21T09:27:36;48.10;;;22.73;;
19221;SDS011;9745;50.828;4.378;2023-11-21T09:30:02;50.00;;;21.77;;
19221;SDS011;9745;50.828;4.378;2023-11-21T09:32:30;49.30;;;21.70;;
19221;SDS011;9745;50.828;4.378;2023-11-21T09:34:56;50.90;;;21.83;;
19221;SDS011;9745;50.828;4.378;2023-11-21T09:37:23;54.93;;;23.63;;
19221;SDS011;9745;50.828;4.378;2023-11-21T09:39:52;52.43;;;20.90;;
19221;SDS011;9745;50.828;4.378;2023-11-21T09:42:36;51.23;;;22.47;;
19221;SDS011;9745;50.828;4.378;2023-11-21T09:47:58;46.77;;;22.53;;
19221;SDS011;9745;50.828;4.378;2023-11-21T09:50:24;44.17;;;20.17;;
19221;SDS011;9745;50.828;4.378;2023-11-21T09:52:55;48.40;;;21.67;;
19221;SDS011;9745;50.828;4.378;2023-11-21T09:55:22;41.17;;;20.13;;
19221;SDS011;9745;50.828;4.378;2023-11-21T09:57:51;46.73;;;21.60;;
19221;SDS011;9745;50.828;4.378;2023-11-21T10:00:18;49.70;;;20.70;;
19221;SDS011;9745;50.828;4.378;2023-11-21T10:02:48;44.73;;;21.10;;
19221;SDS011;9745;50.828;4.378;2023-11-21T10:05:15;51.10;;;20.80;;
19221;SDS011;9745;50.828;4.378;2023-11-21T10:07:43;43.10;;;19.37;;
19221;SDS011;9745;50.828;4.378;2023-11-21T10:10:10;35.63;;;19.73;;
19221;SDS011;9745;50.828;4.378;2023-11-21T10:12:36;38.30;;;18.70;;
19221;SDS011;9745;50.828;4.378;2023-11-21T10:15:03;38.97;;;18.80;;
19221;SDS011;9745;50.828;4.378;2023-11-21T10:17:32;51.63;;;20.83;;
19221;SDS011;9745;50.828;4.378;2023-11-21T10:20:04;42.03;;;20.23;;
19221;SDS011;9745;50.828;4.378;2023-11-21T10:22:40;32.40;;;17.67;;
19221;SDS011;9745;50.828;4.378;2023-11-21T10:25:09;30.60;;;15.77;;
19221;SDS011;9745;50.828;4.378;2023-11-21T10:27:38;25.30;;;14.87;;
19221;SDS011;9745;50.828;4.378;2023-11-21T10:30:05;27.17;;;14.63;;
19221;SDS011;9745;50.828;4.378;2023-11-21T10:32:31;23.83;;;13.90;;
19221;SDS011;9745;50.828;4.378;2023-11-21T10:34:57;24.17;;;13.40;;
19221;SDS011;9745;50.828;4.378;2023-11-21T10:37:32;24.67;;;13.80;;
19221;SDS011;9745;50.828;4.378;2023-11-21T10:40:00;21.30;;;13.50;;
19221;SDS011;9745;50.828;4.378;2023-11-21T10:42:27;25.50;;;14.30;;
19221;SDS011;9745;50.828;4.378;2023-11-21T10:44:53;20.93;;;12.97;;
19221;SDS011;9745;50.828;4.378;2023-11-21T10:47:19;21.80;;;13.67;;
19221;SDS011;9745;50.828;4.378;2023-11-21T10:49:51;19.90;;;13.87;;
19221;SDS011;9745;50.828;4.378;2023-11-21T10:52:20;23.13;;;14.33;;
19221;SDS011;9745;50.828;4.378;2023-11-21T10:54:46;24.53;;;14.43;;
19221;SDS011;9745;50.828;4.378;2023-11-21T10:57:13;26.30;;;15.20;;
19221;SDS011;9745;50.828;4.378;2023-11-21T10:59:40;24.97;;;14.23;;
19221;SDS011;9745;50.828;4.378;2023-11-21T11:02:15;23.83;;;13.60;;
19221;SDS011;9745;50.828;4.378;2023-11-21T11:04:46;25.47;;;14.87;;
19221;SDS011;9745;50.828;4.378;2023-11-21T11:07:12;26.77;;;15.30;;
19221;SDS011;9745;50.828;4.378;2023-11-21T11:09:39;22.87;;;14.53;;
19221;SDS011;9745;50.828;4.378;2023-11-21T11:12:05;30.13;;;16.90;;
19221;SDS011;9745;50.828;4.378;2023-11-21T11:14:32;27.63;;;16.27;;
19221;SDS011;9745;50.828;4.378;2023-11-21T11:16:58;26.87;;;15.57;;
19221;SDS011;9745;50.828;4.378;2023-11-21T11:19:25;30.13;;;16.50;;
19221;SDS011;9745;50.828;4.378;2023-11-21T11:24:33;28.27;;;17.50;;
19221;SDS011;9745;50.828;4.378;2023-11-21T11:32:15;29.07;;;17.33;;
19221;SDS011;9745;50.828;4.378;2023-11-21T11:34:47;31.53;;;18.77;;
19221;SDS011;9745;50.828;4.378;2023-11-21T11:37:15;31.83;;;19.30;;
19221;SDS011;9745;50.828;4.378;2023-11-21T11:39:41;36.13;;;20.30;;
19221;SDS011;9745;50.828;4.378;2023-11-21T11:42:15;34.83;;;19.03;;
19221;SDS011;9745;50.828;4.378;2023-11-21T11:47:16;33.83;;;20.17;;
19221;SDS011;9745;50.828;4.378;2023-11-21T11:52:53;33.77;;;20.23;;
19221;SDS011;9745;50.828;4.378;2023-11-21T11:55:22;32.43;;;19.27;;
19221;SDS011;9745;50.828;4.378;2023-11-21T11:57:49;24.93;;;17.47;;
19221;SDS011;9745;50.828;4.378;2023-11-21T12:02:58;21.43;;;15.83;;
19221;SDS011;9745;50.828;4.378;2023-11-21T12:05:26;24.43;;;17.00;;
19221;SDS011;9745;50.828;4.378;2023-11-21T12:07:56;22.03;;;16.27;;
19221;SDS011;9745;50.828;4.378;2023-11-21T12:10:24;19.67;;;14.50;;
19221;SDS011;9745;50.828;4.378;2023-11-21T12:12:54;19.97;;;12.17;;
19221;SDS011;9745;50.828;4.378;2023-11-21T12:15:20;17.93;;;11.97;;
19221;SDS011;9745;50.828;4.378;2023-11-21T12:17:47;14.53;;;10.63;;
19221;SDS011;9745;50.828;4.378;2023-11-21T12:20:14;15.73;;;10.93;;
19221;SDS011;9745;50.828;4.378;2023-11-21T12:25:12;14.10;;;10.67;;
19221;SDS011;9745;50.828;4.378;2023-11-21T12:27:41;16.57;;;10.27;;
19221;SDS011;9745;50.828;4.378;2023-11-21T12:30:10;14.43;;;10.47;;
19221;SDS011;9745;50.828;4.378;2023-11-21T12:32:41;16.13;;;9.80;;
19221;SDS011;9745;50.828;4.378;2023-11-21T12:35:08;13.70;;;9.73;;
19221;SDS011;9745;50.828;4.378;2023-11-21T12:37:38;18.53;;;10.83;;
19221;SDS011;9745;50.828;4.378;2023-11-21T12:40:08;13.67;;;10.47;;
19221;SDS011;9745;50.828;4.378;2023-11-21T12:42:37;16.67;;;10.67;;
19221;SDS011;9745;50.828;4.378;2023-11-21T12:45:10;13.50;;;10.30;;
19221;SDS011;9745;50.828;4.378;2023-11-21T12:47:44;17.10;;;10.47;;
19221;SDS011;9745;50.828;4.378;2023-11-21T12:50:11;14.00;;;10.23;;
19221;SDS011;9745;50.828;4.378;2023-11-21T12:52:43;14.57;;;10.33;;
19221;SDS011;9745;50.828;4.378;2023-11-21T12:55:21;16.40;;;10.33;;
19221;SDS011;9745;50.828;4.378;2023-11-21T12:57:51;14.73;;;9.80;;
19221;SDS011;9745;50.828;4.378;2023-11-21T13:00:20;15.40;;;9.60;;
19221;SDS011;9745;50.828;4.378;2023-11-21T13:02:56;13.17;;;8.27;;
19221;SDS011;9745;50.828;4.378;2023-11-21T13:05:26;12.70;;;8.63;;
19221;SDS011;9745;50.828;4.378;2023-11-21T13:07:53;15.10;;;9.10;;
19221;SDS011;9745;50.828;4.378;2023-11-21T13:10:20;17.17;;;9.57;;
19221;SDS011;9745;50.828;4.378;2023-11-21T13:12:50;18.20;;;9.87;;
19221;SDS011;9745;50.828;4.378;2023-11-21T13:15:17;14.97;;;10.07;;
19221;SDS011;9745;50.828;4.378;2023-11-21T13:17:43;17.10;;;10.33;;
19221;SDS011;9745;50.828;4.378;2023-11-21T13:20:13;18.43;;;10.97;;
19221;SDS011;9745;50.828;4.378;2023-11-21T13:22:48;17.73;;;10.90;;
19221;SDS011;9745;50.828;4.378;2023-11-21T13:25:14;17.20;;;11.20;;
19221;SDS011;9745;50.828;4.378;2023-11-21T13:27:42;18.17;;;10.90;;
19221;SDS011;9745;50.828;4.378;2023-11-21T13:30:09;20.90;;;10.87;;
19221;SDS011;9745;50.828;4.378;2023-11-21T13:32:36;18.53;;;11.17;;
19221;SDS011;9745;50.828;4.378;2023-11-21T13:35:02;18.63;;;11.57;;
19221;SDS011;9745;50.828;4.378;2023-11-21T13:37:33;21.83;;;11.63;;
19221;SDS011;9745;50.828;4.378;2023-11-21T13:40:02;18.93;;;12.63;;
19221;SDS011;9745;50.828;4.378;2023-11-21T13:42:39;23.50;;;12.30;;
19221;SDS011;9745;50.828;4.378;2023-11-21T13:45:06;15.40;;;11.33;;
19221;SDS011;9745;50.828;4.378;2023-11-21T13:47:32;21.10;;;11.60;;
19221;SDS011;9745;50.828;4.378;2023-11-21T13:49:59;27.17;;;14.03;;
19221;SDS011;9745;50.828;4.378;2023-11-21T13:52:25;17.00;;;12.13;;
19221;SDS011;9745;50.828;4.378;2023-11-21T13:54:55;15.93;;;10.83;;
19221;SDS011;9745;50.828;4.378;2023-11-21T13:57:27;17.83;;;10.60;;
19221;SDS011;9745;50.828;4.378;2023-11-21T13:59:54;17.80;;;10.00;;
19221;SDS011;9745;50.828;4.378;2023-11-21T14:02:20;18.50;;;9.90;;
19221;SDS011;9745;50.828;4.378;2023-11-21T14:04:53;13.97;;;8.80;;
19221;SDS011;9745;50.828;4.378;2023-11-21T14:07:25;13.27;;;8.80;;
19221;SDS011;9745;50.828;4.378;2023-11-21T14:10:00;15.60;;;8.90;;
19221;SDS011;9745;50.828;4.378;2023-11-21T14:12:26;17.20;;;8.70;;
19221;SDS011;9745;50.828;4.378;2023-11-21T14:14:53;11.20;;;8.63;;
19221;SDS011;9745;50.828;4.378;2023-11-21T14:17:20;9.50;;;6.43;;
19221;SDS011;9745;50.828;4.378;2023-11-21T14:19:49;11.43;;;6.67;;
19221;SDS011;9745;50.828;4.378;2023-11-21T14:22:15;9.60;;;6.87;;
19221;SDS011;9745;50.828;4.378;2023-11-21T14:24:42;10.97;;;7.77;;
19221;SDS011;9745;50.828;4.378;2023-11-21T14:27:12;10.37;;;6.50;;
19221;SDS011;9745;50.828;4.378;2023-11-21T14:29:38;10.70;;;6.37;;
19221;SDS011;9745;50.828;4.378;2023-11-21T14:32:08;8.83;;;5.97;;
19221;SDS011;9745;50.828;4.378;2023-11-21T14:34:38;12.07;;;7.70;;
19221;SDS011;9745;50.828;4.378;2023-11-21T14:37:05;8.40;;;5.73;;
19221;SDS011;9745;50.828;4.378;2023-11-21T14:39:38;7.90;;;5.07;;
19221;SDS011;9745;50.828;4.378;2023-11-21T14:42:12;7.57;;;4.73;;
19221;SDS011;9745;50.828;4.378;2023-11-21T14:44:40;9.57;;;6.10;;
19221;SDS011;9745;50.828;4.378;2023-11-21T14:47:09;10.10;;;6.37;;
19221;SDS011;9745;50.828;4.378;2023-11-21T14:49:43;8.60;;;6.20;;
19221;SDS011;9745;50.828;4.378;2023-11-21T14:52:21;8.93;;;6.33;;
19221;SDS011;9745;50.828;4.378;2023-11-21T14:55:08;10.87;;;6.23;;
19221;SDS011;9745;50.828;4.378;2023-11-21T14:57:46;9.73;;;6.10;;
19221;SDS011;9745;50.828;4.378;2023-11-21T15:00:19;9.40;;;6.70;;
19221;SDS011;9745;50.828;4.378;2023-11-21T15:03:01;9.03;;;5.87;;
19221;SDS011;9745;50.828;4.378;2023-11-21T15:05:28;9.27;;;6.57;;